Kyokuho Maru No.15 — JI3715 — position and weather

sailwx.info

Track history (hours):
 
Tides and Currents Weather Stations Pressure Air Temp Water Temp Dewpoint Dewpoint Depression Visibility Wind Speed Wind Dir Waves Ship Positions

Kyokuho Maru No.15

Last reported at 2015-May-28 08:23 UTC. Time now 2015-May-30 12:32 UTC.
Position N 34°39' E 135°25'.

Length 63 m; draft 4.2 m.

Type: Tanker. MMSI: 431301714.

Date/timePositionNaut miles runAvg speedWind from/ knotsBaromVisibWave heightAir tempDewpointWater temp
2015-May-28 08:23N 34°39' E 135°25'1 1.1
2015-May-28 07:33N 34°40' E 135°25'0 0.0
2015-May-28 06:33N 34°40' E 135°25'0 0.0
2015-May-28 05:33N 34°40' E 135°25'0 0.1
2015-May-28 04:33N 34°40' E 135°25'8 7.6
2015-May-28 03:31N 34°32' E 135°25'0 0.0
2015-May-28 02:25N 34°32' E 135°25'0 0.0
2015-May-28 01:32N 34°32' E 135°25'0 0.0
2015-May-28 00:33N 34°32' E 135°25'0 0.0
2015-May-27 23:31N 34°32' E 135°25'0 0.1
2015-May-27 22:32N 34°32' E 135°25'2 1.7
2015-May-27 21:28N 34°31' E 135°24'0 0.0
2015-May-27 20:30N 34°31' E 135°24'0 0.0
2015-May-27 19:22N 34°31' E 135°24'0 0.0
2015-May-27 18:22N 34°31' E 135°24'0 0.0
2015-May-27 17:33N 34°31' E 135°24'0 0.0
2015-May-27 16:21N 34°31' E 135°24'0 0.0
2015-May-27 15:18N 34°31' E 135°24'0 0.0
2015-May-27 14:33N 34°31' E 135°24'0 0.0
2015-May-27 13:33N 34°31' E 135°24'0 0.0
2015-May-27 12:31N 34°31' E 135°24'0 0.0
2015-May-27 11:33N 34°31' E 135°24'0 0.0
2015-May-27 10:33N 34°31' E 135°24'0 0.0
2015-May-27 09:32N 34°31' E 135°24'0 0.0
2015-May-27 08:33N 34°31' E 135°24'0 0.0
2015-May-27 07:32N 34°31' E 135°24'0 0.0
2015-May-27 06:30N 34°31' E 135°24'0 0.0
2015-May-27 05:19N 34°31' E 135°24'0 0.4
2015-May-27 04:32N 34°31' E 135°24'8 8.6
2015-May-27 03:33N 34°34' E 135°15'7 6.5
2015-May-27 02:34N 34°39' E 135°09'0 0.0
2015-May-27 01:34N 34°39' E 135°09'0 0.0
2015-May-27 00:34N 34°39' E 135°09'1 0.7
2015-May-26 23:33N 34°38' E 135°09'0 0.4
2015-May-26 22:23N 34°38' E 135°09'0 0.1
2015-May-26 21:29N 34°38' E 135°09'0 0.0
2015-May-26 20:17N 34°38' E 135°09'0 0.0
2015-May-26 19:29N 34°38' E 135°09'0 0.0
2015-May-26 18:29N 34°38' E 135°09'0 0.0
2015-May-26 17:29N 34°38' E 135°09'0 0.0
2015-May-26 16:29N 34°38' E 135°09'0 0.0
2015-May-26 15:29N 34°38' E 135°09'0 0.0
2015-May-26 14:21N 34°38' E 135°09'3 3.6
2015-May-26 13:24N 34°37' E 135°13'0 0.0
2015-May-26 12:30N 34°37' E 135°13'0 0.0
2015-May-26 11:24N 34°37' E 135°13'2 2.2
2015-May-26 10:33N 34°38' E 135°15'3 2.8
2015-May-26 09:34N 34°40' E 135°18'0 0.0
2015-May-26 08:33N 34°40' E 135°18'1 1.1
2015-May-26 07:33N 34°39' E 135°19'0 0.0
2015-May-26 06:33N 34°39' E 135°19'0 0.0
2015-May-26 05:27N 34°39' E 135°19'0 0.0
2015-May-26 04:33N 34°39' E 135°19'0 0.0
2015-May-26 03:33N 34°39' E 135°19'0 0.0
2015-May-26 02:33N 34°39' E 135°19'0 0.0
2015-May-26 01:33N 34°39' E 135°19'0 0.0
2015-May-26 00:33N 34°39' E 135°19'0 0.0
2015-May-25 23:27N 34°39' E 135°19'0 0.0
2015-May-25 22:33N 34°39' E 135°19'0 0.0
2015-May-25 21:33N 34°39' E 135°19'0 0.0
2015-May-25 20:33N 34°39' E 135°19'0 0.0
2015-May-25 19:33N 34°39' E 135°19'0 0.0
2015-May-25 18:33N 34°39' E 135°19'0 0.0
2015-May-25 17:33N 34°39' E 135°19'0 0.0
2015-May-25 16:33N 34°39' E 135°19'0 0.1
2015-May-25 15:33N 34°39' E 135°19'3 2.9
2015-May-25 14:33N 34°37' E 135°16'1211.6
2015-May-25 13:32N 34°37' E 135°02'  
2015-May-19 14:33N 34°38' E 135°00'1212.2
2015-May-19 13:33N 34°34' E 135°15'6 0.7
2015-May-19 04:32N 34°32' E 135°22'5 4.8
2015-May-19 03:33N 34°35' E 135°18'7 7.3
2015-May-19 02:33N 34°42' E 135°15'0 0.0
2015-May-19 01:33N 34°42' E 135°15'0 0.0
2015-May-19 00:33N 34°42' E 135°15'0 0.0
2015-May-18 23:33N 34°42' E 135°15'1 0.7
2015-May-18 22:33N 34°42' E 135°15'5 4.6
2015-May-18 21:33N 34°37' E 135°16'0 0.0
2015-May-18 20:30N 34°37' E 135°16'0 0.1
2015-May-18 19:30N 34°37' E 135°16'0 0.0
2015-May-18 18:30N 34°37' E 135°16'0 0.0
2015-May-18 17:30N 34°37' E 135°16'0 0.0
2015-May-18 16:30N 34°37' E 135°16'0 0.0
2015-May-18 15:30N 34°37' E 135°16'0 0.0
2015-May-18 14:24N 34°37' E 135°16'0 0.0
2015-May-18 13:30N 34°37' E 135°16'6 6.6
2015-May-18 12:34N 34°31' E 135°13'1211.7
2015-May-18 11:33N 34°21' E 135°06'1211.9
2015-May-18 10:33N 34°09' E 135°03'  
Track history (hours):
 
Tides and Currents Weather Stations Pressure Air Temp Water Temp Dewpoint Dewpoint Depression Visibility Wind Speed Wind Dir Waves Ship Positions

Kyokuho Maru No.15

Last reported at 2015-May-28 08:23 UTC. Time now 2015-May-30 12:32 UTC.
Position N 34°39' E 135°25'.

Length 63 m; draft 4.2 m.

Type: Tanker. MMSI: 431301714.

Date/timePositionNaut miles runAvg speedWind from/ knotsBaromVisibWave heightAir tempDewpointWater temp
2015-May-28 08:23N 34°39' E 135°25'1 1.1
2015-May-28 07:33N 34°40' E 135°25'0 0.0
2015-May-28 06:33N 34°40' E 135°25'0 0.0
2015-May-28 05:33N 34°40' E 135°25'0 0.1
2015-May-28 04:33N 34°40' E 135°25'8 7.6
2015-May-28 03:31N 34°32' E 135°25'0 0.0
2015-May-28 02:25N 34°32' E 135°25'0 0.0
2015-May-28 01:32N 34°32' E 135°25'0 0.0
2015-May-28 00:33N 34°32' E 135°25'0 0.0
2015-May-27 23:31N 34°32' E 135°25'0 0.1
2015-May-27 22:32N 34°32' E 135°25'2 1.7
2015-May-27 21:28N 34°31' E 135°24'0 0.0
2015-May-27 20:30N 34°31' E 135°24'0 0.0
2015-May-27 19:22N 34°31' E 135°24'0 0.0
2015-May-27 18:22N 34°31' E 135°24'0 0.0
2015-May-27 17:33N 34°31' E 135°24'0 0.0
2015-May-27 16:21N 34°31' E 135°24'0 0.0
2015-May-27 15:18N 34°31' E 135°24'0 0.0
2015-May-27 14:33N 34°31' E 135°24'0 0.0
2015-May-27 13:33N 34°31' E 135°24'0 0.0
2015-May-27 12:31N 34°31' E 135°24'0 0.0
2015-May-27 11:33N 34°31' E 135°24'0 0.0
2015-May-27 10:33N 34°31' E 135°24'0 0.0
2015-May-27 09:32N 34°31' E 135°24'0 0.0
2015-May-27 08:33N 34°31' E 135°24'0 0.0
2015-May-27 07:32N 34°31' E 135°24'0 0.0
2015-May-27 06:30N 34°31' E 135°24'0 0.0
2015-May-27 05:19N 34°31' E 135°24'0 0.4
2015-May-27 04:32N 34°31' E 135°24'8 8.6
2015-May-27 03:33N 34°34' E 135°15'7 6.5
2015-May-27 02:34N 34°39' E 135°09'0 0.0
2015-May-27 01:34N 34°39' E 135°09'0 0.0
2015-May-27 00:34N 34°39' E 135°09'1 0.7
2015-May-26 23:33N 34°38' E 135°09'0 0.4
2015-May-26 22:23N 34°38' E 135°09'0 0.1
2015-May-26 21:29N 34°38' E 135°09'0 0.0
2015-May-26 20:17N 34°38' E 135°09'0 0.0
2015-May-26 19:29N 34°38' E 135°09'0 0.0
2015-May-26 18:29N 34°38' E 135°09'0 0.0
2015-May-26 17:29N 34°38' E 135°09'0 0.0
2015-May-26 16:29N 34°38' E 135°09'0 0.0
2015-May-26 15:29N 34°38' E 135°09'0 0.0
2015-May-26 14:21N 34°38' E 135°09'3 3.6
2015-May-26 13:24N 34°37' E 135°13'0 0.0
2015-May-26 12:30N 34°37' E 135°13'0 0.0
2015-May-26 11:24N 34°37' E 135°13'2 2.2
2015-May-26 10:33N 34°38' E 135°15'3 2.8
2015-May-26 09:34N 34°40' E 135°18'0 0.0
2015-May-26 08:33N 34°40' E 135°18'1 1.1
2015-May-26 07:33N 34°39' E 135°19'0 0.0
2015-May-26 06:33N 34°39' E 135°19'0 0.0
2015-May-26 05:27N 34°39' E 135°19'0 0.0
2015-May-26 04:33N 34°39' E 135°19'0 0.0
2015-May-26 03:33N 34°39' E 135°19'0 0.0
2015-May-26 02:33N 34°39' E 135°19'0 0.0
2015-May-26 01:33N 34°39' E 135°19'0 0.0
2015-May-26 00:33N 34°39' E 135°19'0 0.0
2015-May-25 23:27N 34°39' E 135°19'0 0.0
2015-May-25 22:33N 34°39' E 135°19'0 0.0
2015-May-25 21:33N 34°39' E 135°19'0 0.0
2015-May-25 20:33N 34°39' E 135°19'0 0.0
2015-May-25 19:33N 34°39' E 135°19'0 0.0
2015-May-25 18:33N 34°39' E 135°19'0 0.0
2015-May-25 17:33N 34°39' E 135°19'0 0.0
2015-May-25 16:33N 34°39' E 135°19'0 0.1
2015-May-25 15:33N 34°39' E 135°19'3 2.9
2015-May-25 14:33N 34°37' E 135°16'1211.6
2015-May-25 13:32N 34°37' E 135°02'  
2015-May-19 14:33N 34°38' E 135°00'1212.2
2015-May-19 13:33N 34°34' E 135°15'6 0.7
2015-May-19 04:32N 34°32' E 135°22'5 4.8
2015-May-19 03:33N 34°35' E 135°18'7 7.3
2015-May-19 02:33N 34°42' E 135°15'0 0.0
2015-May-19 01:33N 34°42' E 135°15'0 0.0
2015-May-19 00:33N 34°42' E 135°15'0 0.0
2015-May-18 23:33N 34°42' E 135°15'1 0.7
2015-May-18 22:33N 34°42' E 135°15'5 4.6
2015-May-18 21:33N 34°37' E 135°16'0 0.0
2015-May-18 20:30N 34°37' E 135°16'0 0.1
2015-May-18 19:30N 34°37' E 135°16'0 0.0
2015-May-18 18:30N 34°37' E 135°16'0 0.0
2015-May-18 17:30N 34°37' E 135°16'0 0.0
2015-May-18 16:30N 34°37' E 135°16'0 0.0
2015-May-18 15:30N 34°37' E 135°16'0 0.0
2015-May-18 14:24N 34°37' E 135°16'0 0.0
2015-May-18 13:30N 34°37' E 135°16'6 6.6
2015-May-18 12:34N 34°31' E 135°13'1211.7
2015-May-18 11:33N 34°21' E 135°06'1211.9
2015-May-18 10:33N 34°09' E 135°03'  

Dump ship's entire track history